CheckWX is a tool to help pilots better visualize weather data.  It is not intended as a substitute for an official pre-flight weather briefing.

10:08:46 UTC

EDSB METAR
Karlsruhe Baden-Baden Airport
Baden-Baden, Germany
Current

49 mins ago

EDSB 210920Z 01011KT CAVOK 09/M01 Q1033
Observed
Mar-21 @ 09:20 UTC
Wind
  • 010° at 11 KTS
Visibility
10,000+ meters
Flight Rules
VFR
Cloud Levels
  • Clear skies
Temperature
C / 48°F
Dewpoint
-1°C / 30°F
Humidity
50%
Altimeter
30.5" Hg
Pressure
1032.91 hPa
Previous

1 hour ago

EDSB 210850Z 03010KT CAVOK 09/M00 Q1033
Observed
Mar-21 @ 08:50 UTC
Wind
  • 030° at 10 KTS
Visibility
10,000+ meters
Flight Rules
VFR
Cloud Levels
  • Clear skies
Temperature
C / 48°F
Dewpoint
C / 32°F
Humidity
54%
Altimeter
30.5" Hg
Pressure
1032.91 hPa
Previous

2 hours ago

EDSB 210820Z 36008KT 340V040 CAVOK 08/M00 Q1034
Observed
Mar-21 @ 08:20 UTC
Wind
  • 360° at 8 KTS
Visibility
10,000+ meters
Flight Rules
VFR
Cloud Levels
  • Clear skies
Temperature
C / 46°F
Dewpoint
C / 32°F
Humidity
57%
Altimeter
30.53" Hg
Pressure
1033.91 hPa